sensor_id;sensor_type;location;lat;lon;timestamp;P1;durP1;ratioP1;P2;durP2;ratioP2
2928;SDS011;1474;51.460;7.150;2023-04-20T00:00:28;3.72;;;2.40;;
2928;SDS011;1474;51.460;7.150;2023-04-20T00:02:55;5.03;;;2.65;;
2928;SDS011;1474;51.460;7.150;2023-04-20T00:05:20;3.60;;;2.58;;
2928;SDS011;1474;51.460;7.150;2023-04-20T00:07:47;4.25;;;2.05;;
2928;SDS011;1474;51.460;7.150;2023-04-20T00:10:13;4.15;;;2.22;;
2928;SDS011;1474;51.460;7.150;2023-04-20T00:12:40;3.30;;;2.00;;
2928;SDS011;1474;51.460;7.150;2023-04-20T00:15:06;3.55;;;2.10;;
2928;SDS011;1474;51.460;7.150;2023-04-20T00:17:32;2.20;;;2.00;;
2928;SDS011;1474;51.460;7.150;2023-04-20T00:19:57;4.25;;;2.22;;
2928;SDS011;1474;51.460;7.150;2023-04-20T00:22:23;7.75;;;2.85;;
2928;SDS011;1474;51.460;7.150;2023-04-20T00:24:50;3.30;;;2.00;;
2928;SDS011;1474;51.460;7.150;2023-04-20T00:27:16;2.90;;;2.05;;
2928;SDS011;1474;51.460;7.150;2023-04-20T00:29:42;4.43;;;2.15;;
2928;SDS011;1474;51.460;7.150;2023-04-20T00:32:08;4.90;;;2.60;;
2928;SDS011;1474;51.460;7.150;2023-04-20T00:34:33;6.43;;;2.50;;
2928;SDS011;1474;51.460;7.150;2023-04-20T00:36:59;2.92;;;2.00;;
2928;SDS011;1474;51.460;7.150;2023-04-20T00:39:25;5.88;;;2.58;;
2928;SDS011;1474;51.460;7.150;2023-04-20T00:41:51;3.30;;;2.25;;
2928;SDS011;1474;51.460;7.150;2023-04-20T00:44:16;4.28;;;2.40;;
2928;SDS011;1474;51.460;7.150;2023-04-20T00:46:42;2.85;;;2.15;;
2928;SDS011;1474;51.460;7.150;2023-04-20T00:49:08;3.22;;;1.92;;
2928;SDS011;1474;51.460;7.150;2023-04-20T00:51:37;3.72;;;2.30;;
2928;SDS011;1474;51.460;7.150;2023-04-20T00:54:03;9.32;;;2.03;;
2928;SDS011;1474;51.460;7.150;2023-04-20T00:56:29;2.05;;;1.65;;
2928;SDS011;1474;51.460;7.150;2023-04-20T00:58:54;3.72;;;2.25;;
2928;SDS011;1474;51.460;7.150;2023-04-20T01:01:20;4.30;;;2.28;;
2928;SDS011;1474;51.460;7.150;2023-04-20T01:03:46;7.28;;;2.50;;
2928;SDS011;1474;51.460;7.150;2023-04-20T01:06:12;6.05;;;1.88;;
2928;SDS011;1474;51.460;7.150;2023-04-20T01:08:45;3.55;;;2.30;;
2928;SDS011;1474;51.460;7.150;2023-04-20T01:11:14;4.43;;;2.55;;
2928;SDS011;1474;51.460;7.150;2023-04-20T01:13:40;4.47;;;1.90;;
2928;SDS011;1474;51.460;7.150;2023-04-20T01:16:06;2.35;;;1.83;;
2928;SDS011;1474;51.460;7.150;2023-04-20T01:18:41;3.17;;;1.75;;
2928;SDS011;1474;51.460;7.150;2023-04-20T01:21:12;4.35;;;2.92;;
2928;SDS011;1474;51.460;7.150;2023-04-20T01:23:39;3.78;;;2.55;;
2928;SDS011;1474;51.460;7.150;2023-04-20T01:26:12;4.90;;;2.63;;
2928;SDS011;1474;51.460;7.150;2023-04-20T01:28:39;5.95;;;2.85;;
2928;SDS011;1474;51.460;7.150;2023-04-20T01:31:06;8.82;;;3.95;;
2928;SDS011;1474;51.460;7.150;2023-04-20T01:33:32;4.25;;;2.80;;
2928;SDS011;1474;51.460;7.150;2023-04-20T01:35:58;5.38;;;3.20;;
2928;SDS011;1474;51.460;7.150;2023-04-20T01:38:24;5.60;;;2.30;;
2928;SDS011;1474;51.460;7.150;2023-04-20T01:40:51;2.55;;;1.95;;
2928;SDS011;1474;51.460;7.150;2023-04-20T01:43:17;3.90;;;2.38;;
2928;SDS011;1474;51.460;7.150;2023-04-20T01:45:44;1.98;;;1.60;;
2928;SDS011;1474;51.460;7.150;2023-04-20T01:48:10;2.17;;;1.75;;
2928;SDS011;1474;51.460;7.150;2023-04-20T01:50:35;3.15;;;2.00;;
2928;SDS011;1474;51.460;7.150;2023-04-20T01:53:01;4.10;;;1.88;;
2928;SDS011;1474;51.460;7.150;2023-04-20T01:55:27;5.47;;;2.28;;
2928;SDS011;1474;51.460;7.150;2023-04-20T01:57:52;4.75;;;2.08;;
2928;SDS011;1474;51.460;7.150;2023-04-20T02:00:18;4.80;;;2.13;;
2928;SDS011;1474;51.460;7.150;2023-04-20T02:02:44;3.45;;;2.03;;
2928;SDS011;1474;51.460;7.150;2023-04-20T02:05:09;2.22;;;1.92;;
2928;SDS011;1474;51.460;7.150;2023-04-20T02:07:35;5.22;;;1.92;;
2928;SDS011;1474;51.460;7.150;2023-04-20T02:10:01;3.70;;;2.08;;
2928;SDS011;1474;51.460;7.150;2023-04-20T02:12:27;2.85;;;2.00;;
2928;SDS011;1474;51.460;7.150;2023-04-20T02:14:53;3.85;;;1.92;;
2928;SDS011;1474;51.460;7.150;2023-04-20T02:17:19;5.70;;;2.67;;
2928;SDS011;1474;51.460;7.150;2023-04-20T02:19:44;4.30;;;1.38;;
2928;SDS011;1474;51.460;7.150;2023-04-20T02:22:11;6.30;;;2.35;;
2928;SDS011;1474;51.460;7.150;2023-04-20T02:24:36;2.78;;;2.00;;
2928;SDS011;1474;51.460;7.150;2023-04-20T02:27:02;1.40;;;1.25;;
2928;SDS011;1474;51.460;7.150;2023-04-20T02:29:28;4.05;;;1.67;;
2928;SDS011;1474;51.460;7.150;2023-04-20T02:31:53;5.30;;;1.65;;
2928;SDS011;1474;51.460;7.150;2023-04-20T02:34:19;4.22;;;2.05;;
2928;SDS011;1474;51.460;7.150;2023-04-20T02:36:45;4.00;;;1.77;;
2928;SDS011;1474;51.460;7.150;2023-04-20T02:39:11;3.10;;;1.75;;
2928;SDS011;1474;51.460;7.150;2023-04-20T02:41:37;2.42;;;1.80;;
2928;SDS011;1474;51.460;7.150;2023-04-20T02:44:02;4.20;;;2.00;;
2928;SDS011;1474;51.460;7.150;2023-04-20T02:46:28;3.28;;;2.05;;
2928;SDS011;1474;51.460;7.150;2023-04-20T02:48:53;1.90;;;1.63;;
2928;SDS011;1474;51.460;7.150;2023-04-20T02:51:20;3.22;;;2.40;;
2928;SDS011;1474;51.460;7.150;2023-04-20T02:53:46;3.05;;;2.22;;
2928;SDS011;1474;51.460;7.150;2023-04-20T02:56:11;4.45;;;1.67;;
2928;SDS011;1474;51.460;7.150;2023-04-20T02:58:37;3.63;;;2.10;;
2928;SDS011;1474;51.460;7.150;2023-04-20T03:01:02;4.15;;;2.20;;
2928;SDS011;1474;51.460;7.150;2023-04-20T03:03:28;2.92;;;1.80;;
2928;SDS011;1474;51.460;7.150;2023-04-20T03:05:54;2.65;;;1.90;;
2928;SDS011;1474;51.460;7.150;2023-04-20T03:08:20;3.60;;;1.95;;
2928;SDS011;1474;51.460;7.150;2023-04-20T03:10:46;3.85;;;2.17;;
2928;SDS011;1474;51.460;7.150;2023-04-20T03:13:12;2.38;;;1.80;;
2928;SDS011;1474;51.460;7.150;2023-04-20T03:15:38;6.90;;;2.42;;
2928;SDS011;1474;51.460;7.150;2023-04-20T03:18:03;3.08;;;2.28;;
2928;SDS011;1474;51.460;7.150;2023-04-20T03:20:29;4.90;;;2.75;;
2928;SDS011;1474;51.460;7.150;2023-04-20T03:22:55;6.75;;;3.15;;
2928;SDS011;1474;51.460;7.150;2023-04-20T03:25:20;3.60;;;2.63;;
2928;SDS011;1474;51.460;7.150;2023-04-20T03:27:46;3.13;;;2.17;;
2928;SDS011;1474;51.460;7.150;2023-04-20T03:30:13;4.75;;;2.30;;
2928;SDS011;1474;51.460;7.150;2023-04-20T03:32:42;5.22;;;2.40;;
2928;SDS011;1474;51.460;7.150;2023-04-20T03:35:09;4.88;;;2.10;;
2928;SDS011;1474;51.460;7.150;2023-04-20T03:37:35;5.28;;;2.63;;
2928;SDS011;1474;51.460;7.150;2023-04-20T03:40:01;3.97;;;2.58;;
2928;SDS011;1474;51.460;7.150;2023-04-20T03:42:27;2.90;;;2.22;;
2928;SDS011;1474;51.460;7.150;2023-04-20T03:44:54;3.42;;;2.80;;
2928;SDS011;1474;51.460;7.150;2023-04-20T03:47:20;4.90;;;2.40;;
2928;SDS011;1474;51.460;7.150;2023-04-20T03:49:45;2.63;;;2.30;;
2928;SDS011;1474;51.460;7.150;2023-04-20T03:52:11;2.45;;;1.92;;
2928;SDS011;1474;51.460;7.150;2023-04-20T03:54:36;6.25;;;2.45;;
2928;SDS011;1474;51.460;7.150;2023-04-20T03:57:02;3.67;;;2.13;;
2928;SDS011;1474;51.460;7.150;2023-04-20T03:59:27;2.88;;;2.03;;
2928;SDS011;1474;51.460;7.150;2023-04-20T04:01:53;4.68;;;2.20;;
2928;SDS011;1474;51.460;7.150;2023-04-20T04:04:19;5.18;;;2.67;;
2928;SDS011;1474;51.460;7.150;2023-04-20T04:06:44;3.13;;;2.47;;
2928;SDS011;1474;51.460;7.150;2023-04-20T04:09:10;3.88;;;2.53;;
2928;SDS011;1474;51.460;7.150;2023-04-20T04:11:36;5.03;;;1.90;;
2928;SDS011;1474;51.460;7.150;2023-04-20T04:14:01;4.50;;;2.50;;
2928;SDS011;1474;51.460;7.150;2023-04-20T04:16:29;2.60;;;2.40;;
2928;SDS011;1474;51.460;7.150;2023-04-20T04:18:55;2.85;;;2.08;;
2928;SDS011;1474;51.460;7.150;2023-04-20T04:21:21;2.60;;;1.95;;
2928;SDS011;1474;51.460;7.150;2023-04-20T04:23:47;7.00;;;2.92;;
2928;SDS011;1474;51.460;7.150;2023-04-20T04:26:13;3.20;;;1.75;;
2928;SDS011;1474;51.460;7.150;2023-04-20T04:28:39;4.63;;;2.35;;
2928;SDS011;1474;51.460;7.150;2023-04-20T04:31:06;5.65;;;3.22;;
2928;SDS011;1474;51.460;7.150;2023-04-20T04:33:32;4.03;;;2.10;;
2928;SDS011;1474;51.460;7.150;2023-04-20T04:35:58;2.80;;;2.03;;
2928;SDS011;1474;51.460;7.150;2023-04-20T04:38:25;6.47;;;2.55;;
2928;SDS011;1474;51.460;7.150;2023-04-20T04:40:51;4.57;;;3.05;;
2928;SDS011;1474;51.460;7.150;2023-04-20T04:43:18;4.13;;;2.78;;
2928;SDS011;1474;51.460;7.150;2023-04-20T04:45:44;3.80;;;2.58;;
2928;SDS011;1474;51.460;7.150;2023-04-20T04:48:10;2.75;;;2.22;;
2928;SDS011;1474;51.460;7.150;2023-04-20T04:50:37;1.95;;;1.75;;
2928;SDS011;1474;51.460;7.150;2023-04-20T04:53:03;5.60;;;2.40;;
2928;SDS011;1474;51.460;7.150;2023-04-20T04:55:28;2.83;;;2.05;;
2928;SDS011;1474;51.460;7.150;2023-04-20T04:57:54;5.93;;;3.28;;
2928;SDS011;1474;51.460;7.150;2023-04-20T05:00:21;4.07;;;1.80;;
2928;SDS011;1474;51.460;7.150;2023-04-20T05:02:47;2.88;;;2.40;;
2928;SDS011;1474;51.460;7.150;2023-04-20T05:05:13;2.42;;;1.08;;
2928;SDS011;1474;51.460;7.150;2023-04-20T05:07:39;6.63;;;3.38;;
2928;SDS011;1474;51.460;7.150;2023-04-20T05:10:05;4.68;;;2.75;;
2928;SDS011;1474;51.460;7.150;2023-04-20T05:12:32;4.45;;;2.25;;
2928;SDS011;1474;51.460;7.150;2023-04-20T05:14:57;3.33;;;2.47;;
2928;SDS011;1474;51.460;7.150;2023-04-20T05:17:23;2.95;;;2.25;;
2928;SDS011;1474;51.460;7.150;2023-04-20T05:19:48;2.47;;;1.90;;
2928;SDS011;1474;51.460;7.150;2023-04-20T05:22:14;2.42;;;1.83;;
2928;SDS011;1474;51.460;7.150;2023-04-20T05:24:40;4.47;;;2.90;;
2928;SDS011;1474;51.460;7.150;2023-04-20T05:27:06;2.33;;;2.08;;
2928;SDS011;1474;51.460;7.150;2023-04-20T05:29:33;5.10;;;2.80;;
2928;SDS011;1474;51.460;7.150;2023-04-20T05:31:59;1.80;;;1.13;;
2928;SDS011;1474;51.460;7.150;2023-04-20T05:34:24;3.88;;;2.58;;
2928;SDS011;1474;51.460;7.150;2023-04-20T05:36:50;2.00;;;1.70;;
2928;SDS011;1474;51.460;7.150;2023-04-20T05:39:17;4.68;;;2.28;;
2928;SDS011;1474;51.460;7.150;2023-04-20T05:41:42;4.38;;;3.33;;
2928;SDS011;1474;51.460;7.150;2023-04-20T05:44:09;2.80;;;2.25;;
2928;SDS011;1474;51.460;7.150;2023-04-20T05:46:34;6.30;;;2.72;;
2928;SDS011;1474;51.460;7.150;2023-04-20T05:49:00;2.78;;;2.47;;
2928;SDS011;1474;51.460;7.150;2023-04-20T05:51:25;3.72;;;2.53;;
2928;SDS011;1474;51.460;7.150;2023-04-20T05:53:54;3.20;;;2.65;;
2928;SDS011;1474;51.460;7.150;2023-04-20T05:56:20;5.25;;;2.75;;
2928;SDS011;1474;51.460;7.150;2023-04-20T05:58:45;3.13;;;2.40;;
2928;SDS011;1474;51.460;7.150;2023-04-20T06:01:12;2.63;;;1.98;;
2928;SDS011;1474;51.460;7.150;2023-04-20T06:03:38;4.07;;;2.20;;
2928;SDS011;1474;51.460;7.150;2023-04-20T06:06:03;3.72;;;2.80;;
2928;SDS011;1474;51.460;7.150;2023-04-20T06:08:29;3.70;;;2.20;;
2928;SDS011;1474;51.460;7.150;2023-04-20T06:10:55;2.05;;;1.88;;
2928;SDS011;1474;51.460;7.150;2023-04-20T06:13:22;4.40;;;2.97;;
2928;SDS011;1474;51.460;7.150;2023-04-20T06:15:48;3.00;;;2.63;;
2928;SDS011;1474;51.460;7.150;2023-04-20T06:18:14;4.10;;;2.38;;
2928;SDS011;1474;51.460;7.150;2023-04-20T06:20:42;3.08;;;2.55;;
2928;SDS011;1474;51.460;7.150;2023-04-20T06:23:08;5.25;;;3.33;;
2928;SDS011;1474;51.460;7.150;2023-04-20T06:25:36;8.65;;;4.07;;
2928;SDS011;1474;51.460;7.150;2023-04-20T06:28:03;8.88;;;2.60;;
2928;SDS011;1474;51.460;7.150;2023-04-20T06:30:29;5.35;;;3.60;;
2928;SDS011;1474;51.460;7.150;2023-04-20T06:32:56;2.90;;;2.55;;
2928;SDS011;1474;51.460;7.150;2023-04-20T06:35:22;6.82;;;3.53;;
2928;SDS011;1474;51.460;7.150;2023-04-20T06:37:48;8.07;;;3.55;;
2928;SDS011;1474;51.460;7.150;2023-04-20T06:40:13;4.32;;;3.13;;
2928;SDS011;1474;51.460;7.150;2023-04-20T06:42:39;4.63;;;4.20;;
2928;SDS011;1474;51.460;7.150;2023-04-20T06:45:05;4.72;;;3.58;;
2928;SDS011;1474;51.460;7.150;2023-04-20T06:47:32;4.70;;;3.45;;
2928;SDS011;1474;51.460;7.150;2023-04-20T06:49:58;8.05;;;4.72;;
2928;SDS011;1474;51.460;7.150;2023-04-20T06:52:25;6.40;;;4.07;;
2928;SDS011;1474;51.460;7.150;2023-04-20T06:54:51;5.43;;;3.53;;
2928;SDS011;1474;51.460;7.150;2023-04-20T06:57:17;4.97;;;3.55;;
2928;SDS011;1474;51.460;7.150;2023-04-20T06:59:43;5.07;;;3.63;;
2928;SDS011;1474;51.460;7.150;2023-04-20T07:02:08;5.47;;;4.22;;
2928;SDS011;1474;51.460;7.150;2023-04-20T07:04:34;6.10;;;4.50;;
2928;SDS011;1474;51.460;7.150;2023-04-20T07:06:59;5.65;;;4.22;;
2928;SDS011;1474;51.460;7.150;2023-04-20T07:09:25;4.28;;;3.90;;
2928;SDS011;1474;51.460;7.150;2023-04-20T07:11:51;5.47;;;4.00;;
2928;SDS011;1474;51.460;7.150;2023-04-20T07:14:17;6.93;;;3.42;;
2928;SDS011;1474;51.460;7.150;2023-04-20T07:16:43;4.88;;;3.63;;
2928;SDS011;1474;51.460;7.150;2023-04-20T07:19:08;4.45;;;3.00;;
2928;SDS011;1474;51.460;7.150;2023-04-20T07:21:34;4.43;;;3.72;;
2928;SDS011;1474;51.460;7.150;2023-04-20T07:24:00;7.57;;;4.00;;
2928;SDS011;1474;51.460;7.150;2023-04-20T07:26:26;4.38;;;2.97;;
2928;SDS011;1474;51.460;7.150;2023-04-20T07:28:51;3.10;;;2.83;;
2928;SDS011;1474;51.460;7.150;2023-04-20T07:31:17;6.68;;;3.25;;
2928;SDS011;1474;51.460;7.150;2023-04-20T07:33:43;6.18;;;4.07;;
2928;SDS011;1474;51.460;7.150;2023-04-20T07:36:09;4.65;;;3.70;;
2928;SDS011;1474;51.460;7.150;2023-04-20T07:38:35;5.82;;;3.55;;
2928;SDS011;1474;51.460;7.150;2023-04-20T07:41:01;5.13;;;3.83;;
2928;SDS011;1474;51.460;7.150;2023-04-20T07:43:27;5.10;;;3.03;;
2928;SDS011;1474;51.460;7.150;2023-04-20T07:45:53;6.72;;;3.72;;
2928;SDS011;1474;51.460;7.150;2023-04-20T07:48:19;6.40;;;3.38;;
2928;SDS011;1474;51.460;7.150;2023-04-20T07:50:45;5.10;;;3.55;;
2928;SDS011;1474;51.460;7.150;2023-04-20T07:53:11;5.55;;;3.80;;
2928;SDS011;1474;51.460;7.150;2023-04-20T07:55:39;4.10;;;3.30;;
2928;SDS011;1474;51.460;7.150;2023-04-20T07:58:05;4.30;;;3.45;;
2928;SDS011;1474;51.460;7.150;2023-04-20T08:00:30;7.55;;;3.75;;
2928;SDS011;1474;51.460;7.150;2023-04-20T08:02:56;4.57;;;3.22;;
2928;SDS011;1474;51.460;7.150;2023-04-20T08:05:21;3.65;;;2.47;;
2928;SDS011;1474;51.460;7.150;2023-04-20T08:07:48;8.02;;;4.50;;
2928;SDS011;1474;51.460;7.150;2023-04-20T08:10:13;5.10;;;4.00;;
2928;SDS011;1474;51.460;7.150;2023-04-20T08:12:39;7.53;;;4.32;;
2928;SDS011;1474;51.460;7.150;2023-04-20T08:15:05;9.65;;;4.30;;
2928;SDS011;1474;51.460;7.150;2023-04-20T08:17:31;3.63;;;2.70;;
2928;SDS011;1474;51.460;7.150;2023-04-20T08:19:57;5.63;;;3.22;;
2928;SDS011;1474;51.460;7.150;2023-04-20T08:22:23;5.53;;;3.33;;
2928;SDS011;1474;51.460;7.150;2023-04-20T08:24:51;6.28;;;3.97;;
2928;SDS011;1474;51.460;7.150;2023-04-20T08:27:17;7.03;;;4.00;;
2928;SDS011;1474;51.460;7.150;2023-04-20T08:29:43;6.50;;;3.47;;
2928;SDS011;1474;51.460;7.150;2023-04-20T08:32:08;6.85;;;3.30;;
2928;SDS011;1474;51.460;7.150;2023-04-20T08:34:37;5.25;;;3.13;;
2928;SDS011;1474;51.460;7.150;2023-04-20T08:37:03;4.38;;;3.63;;
2928;SDS011;1474;51.460;7.150;2023-04-20T08:39:29;6.10;;;4.15;;
2928;SDS011;1474;51.460;7.150;2023-04-20T08:41:55;6.07;;;4.13;;
2928;SDS011;1474;51.460;7.150;2023-04-20T08:44:21;5.53;;;4.55;;
2928;SDS011;1474;51.460;7.150;2023-04-20T08:46:48;7.05;;;4.15;;
2928;SDS011;1474;51.460;7.150;2023-04-20T08:49:15;8.90;;;5.28;;
2928;SDS011;1474;51.460;7.150;2023-04-20T08:51:42;9.52;;;5.82;;
2928;SDS011;1474;51.460;7.150;2023-04-20T08:54:09;8.55;;;4.68;;
2928;SDS011;1474;51.460;7.150;2023-04-20T08:56:40;5.32;;;4.18;;
2928;SDS011;1474;51.460;7.150;2023-04-20T08:59:10;7.07;;;4.72;;
2928;SDS011;1474;51.460;7.150;2023-04-20T09:01:38;6.95;;;4.85;;
2928;SDS011;1474;51.460;7.150;2023-04-20T09:06:42;6.30;;;4.28;;
2928;SDS011;1474;51.460;7.150;2023-04-20T09:09:14;3.40;;;2.28;;
2928;SDS011;1474;51.460;7.150;2023-04-20T09:11:40;6.90;;;5.60;;
2928;SDS011;1474;51.460;7.150;2023-04-20T09:14:06;5.50;;;3.90;;
2928;SDS011;1474;51.460;7.150;2023-04-20T09:16:37;6.53;;;3.78;;
2928;SDS011;1474;51.460;7.150;2023-04-20T09:19:14;4.72;;;3.00;;
2928;SDS011;1474;51.460;7.150;2023-04-20T09:21:48;4.65;;;3.75;;
2928;SDS011;1474;51.460;7.150;2023-04-20T09:24:15;6.35;;;4.18;;
2928;SDS011;1474;51.460;7.150;2023-04-20T09:26:41;5.95;;;3.38;;
2928;SDS011;1474;51.460;7.150;2023-04-20T09:29:16;4.18;;;3.40;;
2928;SDS011;1474;51.460;7.150;2023-04-20T09:31:47;5.15;;;3.30;;
2928;SDS011;1474;51.460;7.150;2023-04-20T09:34:13;3.35;;;2.92;;
2928;SDS011;1474;51.460;7.150;2023-04-20T09:36:43;5.18;;;4.40;;
2928;SDS011;1474;51.460;7.150;2023-04-20T09:41:37;7.85;;;4.55;;
2928;SDS011;1474;51.460;7.150;2023-04-20T09:44:04;4.95;;;3.50;;
2928;SDS011;1474;51.460;7.150;2023-04-20T09:46:32;5.18;;;3.33;;
2928;SDS011;1474;51.460;7.150;2023-04-20T09:48:59;6.88;;;4.32;;
2928;SDS011;1474;51.460;7.150;2023-04-20T09:51:26;6.32;;;3.95;;
2928;SDS011;1474;51.460;7.150;2023-04-20T09:53:59;5.28;;;3.80;;
2928;SDS011;1474;51.460;7.150;2023-04-20T09:56:26;5.15;;;3.00;;
2928;SDS011;1474;51.460;7.150;2023-04-20T09:58:52;5.28;;;4.32;;
2928;SDS011;1474;51.460;7.150;2023-04-20T10:01:19;7.45;;;4.20;;
2928;SDS011;1474;51.460;7.150;2023-04-20T10:03:46;6.82;;;3.80;;
2928;SDS011;1474;51.460;7.150;2023-04-20T10:08:50;4.25;;;3.65;;
2928;SDS011;1474;51.460;7.150;2023-04-20T10:11:30;4.43;;;2.80;;
2928;SDS011;1474;51.460;7.150;2023-04-20T10:13:58;3.58;;;3.03;;
2928;SDS011;1474;51.460;7.150;2023-04-20T10:16:24;3.80;;;2.97;;
2928;SDS011;1474;51.460;7.150;2023-04-20T10:19:00;4.35;;;3.45;;
2928;SDS011;1474;51.460;7.150;2023-04-20T10:21:31;3.38;;;2.83;;
2928;SDS011;1474;51.460;7.150;2023-04-20T10:23:58;4.55;;;3.72;;
2928;SDS011;1474;51.460;7.150;2023-04-20T10:26:35;2.97;;;2.53;;
2928;SDS011;1474;51.460;7.150;2023-04-20T10:29:05;7.55;;;3.33;;
2928;SDS011;1474;51.460;7.150;2023-04-20T10:31:35;4.63;;;2.70;;
2928;SDS011;1474;51.460;7.150;2023-04-20T10:34:02;3.83;;;3.03;;
2928;SDS011;1474;51.460;7.150;2023-04-20T10:36:30;2.55;;;2.25;;
2928;SDS011;1474;51.460;7.150;2023-04-20T10:39:12;3.70;;;3.05;;
2928;SDS011;1474;51.460;7.150;2023-04-20T10:41:52;4.82;;;2.90;;
2928;SDS011;1474;51.460;7.150;2023-04-20T10:44:18;3.28;;;2.53;;
2928;SDS011;1474;51.460;7.150;2023-04-20T10:46:48;3.80;;;1.88;;
2928;SDS011;1474;51.460;7.150;2023-04-20T10:49:14;3.53;;;2.92;;
2928;SDS011;1474;51.460;7.150;2023-04-20T10:51:49;3.30;;;2.70;;
2928;SDS011;1474;51.460;7.150;2023-04-20T10:54:16;5.10;;;3.13;;
2928;SDS011;1474;51.460;7.150;2023-04-20T10:56:43;2.50;;;2.28;;
2928;SDS011;1474;51.460;7.150;2023-04-20T10:59:13;3.03;;;2.72;;
2928;SDS011;1474;51.460;7.150;2023-04-20T11:01:40;4.13;;;2.70;;
2928;SDS011;1474;51.460;7.150;2023-04-20T11:04:06;4.53;;;3.75;;
2928;SDS011;1474;51.460;7.150;2023-04-20T11:06:34;3.53;;;2.75;;
2928;SDS011;1474;51.460;7.150;2023-04-20T11:09:00;5.20;;;3.22;;
2928;SDS011;1474;51.460;7.150;2023-04-20T11:11:26;2.78;;;2.47;;
2928;SDS011;1474;51.460;7.150;2023-04-20T11:14:08;3.03;;;2.45;;
2928;SDS011;1474;51.460;7.150;2023-04-20T11:16:34;2.75;;;2.53;;
2928;SDS011;1474;51.460;7.150;2023-04-20T11:19:01;4.47;;;3.25;;
2928;SDS011;1474;51.460;7.150;2023-04-20T11:21:37;2.60;;;1.73;;
2928;SDS011;1474;51.460;7.150;2023-04-20T11:24:20;3.67;;;2.65;;
2928;SDS011;1474;51.460;7.150;2023-04-20T11:26:47;3.08;;;2.45;;
2928;SDS011;1474;51.460;7.150;2023-04-20T11:29:28;2.78;;;2.40;;
2928;SDS011;1474;51.460;7.150;2023-04-20T11:31:54;3.30;;;2.45;;
2928;SDS011;1474;51.460;7.150;2023-04-20T11:34:20;2.70;;;1.75;;
2928;SDS011;1474;51.460;7.150;2023-04-20T11:36:46;5.35;;;2.20;;
2928;SDS011;1474;51.460;7.150;2023-04-20T11:39:14;2.28;;;2.08;;
2928;SDS011;1474;51.460;7.150;2023-04-20T11:41:47;3.35;;;2.25;;
2928;SDS011;1474;51.460;7.150;2023-04-20T11:44:13;2.58;;;2.08;;
2928;SDS011;1474;51.460;7.150;2023-04-20T11:46:39;2.95;;;2.63;;
2928;SDS011;1474;51.460;7.150;2023-04-20T11:49:04;4.57;;;1.90;;
2928;SDS011;1474;51.460;7.150;2023-04-20T11:51:31;3.65;;;2.10;;
2928;SDS011;1474;51.460;7.150;2023-04-20T11:53:56;3.30;;;2.75;;
2928;SDS011;1474;51.460;7.150;2023-04-20T11:56:22;2.63;;;1.98;;
2928;SDS011;1474;51.460;7.150;2023-04-20T11:58:47;1.73;;;1.63;;
2928;SDS011;1474;51.460;7.150;2023-04-20T12:01:13;2.22;;;1.48;;
2928;SDS011;1474;51.460;7.150;2023-04-20T12:03:40;1.70;;;1.60;;
2928;SDS011;1474;51.460;7.150;2023-04-20T12:06:06;2.13;;;1.58;;
2928;SDS011;1474;51.460;7.150;2023-04-20T12:08:32;3.63;;;2.47;;
2928;SDS011;1474;51.460;7.150;2023-04-20T12:10:58;2.63;;;1.98;;
2928;SDS011;1474;51.460;7.150;2023-04-20T12:13:23;3.28;;;1.90;;
2928;SDS011;1474;51.460;7.150;2023-04-20T12:15:49;4.68;;;2.78;;
2928;SDS011;1474;51.460;7.150;2023-04-20T12:18:15;3.95;;;2.78;;
2928;SDS011;1474;51.460;7.150;2023-04-20T12:20:40;5.47;;;2.72;;
2928;SDS011;1474;51.460;7.150;2023-04-20T12:23:06;7.97;;;2.17;;
2928;SDS011;1474;51.460;7.150;2023-04-20T12:25:32;3.80;;;2.25;;
2928;SDS011;1474;51.460;7.150;2023-04-20T12:27:58;2.47;;;2.00;;
2928;SDS011;1474;51.460;7.150;2023-04-20T12:30:25;2.95;;;2.63;;
2928;SDS011;1474;51.460;7.150;2023-04-20T12:32:51;3.42;;;2.83;;
2928;SDS011;1474;51.460;7.150;2023-04-20T12:35:16;3.75;;;3.10;;
2928;SDS011;1474;51.460;7.150;2023-04-20T12:37:42;3.75;;;2.80;;
2928;SDS011;1474;51.460;7.150;2023-04-20T12:40:08;4.47;;;2.92;;
2928;SDS011;1474;51.460;7.150;2023-04-20T12:42:34;2.92;;;2.63;;
2928;SDS011;1474;51.460;7.150;2023-04-20T12:44:59;3.20;;;2.72;;
2928;SDS011;1474;51.460;7.150;2023-04-20T12:47:25;3.58;;;3.08;;
2928;SDS011;1474;51.460;7.150;2023-04-20T12:49:51;3.30;;;2.80;;
2928;SDS011;1474;51.460;7.150;2023-04-20T12:52:18;3.92;;;2.90;;
2928;SDS011;1474;51.460;7.150;2023-04-20T12:54:43;5.05;;;3.25;;
2928;SDS011;1474;51.460;7.150;2023-04-20T12:57:09;3.60;;;3.28;;
2928;SDS011;1474;51.460;7.150;2023-04-20T12:59:34;3.67;;;2.92;;
2928;SDS011;1474;51.460;7.150;2023-04-20T13:02:00;4.28;;;3.20;;
2928;SDS011;1474;51.460;7.150;2023-04-20T13:04:26;3.45;;;2.63;;
2928;SDS011;1474;51.460;7.150;2023-04-20T13:06:51;3.53;;;2.65;;
2928;SDS011;1474;51.460;7.150;2023-04-20T13:09:17;4.03;;;3.05;;
2928;SDS011;1474;51.460;7.150;2023-04-20T13:11:42;4.45;;;2.83;;
2928;SDS011;1474;51.460;7.150;2023-04-20T13:14:08;3.53;;;2.80;;
2928;SDS011;1474;51.460;7.150;2023-04-20T13:16:34;3.67;;;2.80;;
2928;SDS011;1474;51.460;7.150;2023-04-20T13:18:59;4.50;;;3.00;;
2928;SDS011;1474;51.460;7.150;2023-04-20T13:21:25;3.25;;;2.95;;
2928;SDS011;1474;51.460;7.150;2023-04-20T13:23:51;9.20;;;3.28;;
2928;SDS011;1474;51.460;7.150;2023-04-20T13:26:16;4.18;;;2.80;;
2928;SDS011;1474;51.460;7.150;2023-04-20T13:28:42;3.33;;;3.03;;
2928;SDS011;1474;51.460;7.150;2023-04-20T13:31:07;4.57;;;3.35;;
2928;SDS011;1474;51.460;7.150;2023-04-20T13:33:33;5.47;;;3.80;;
2928;SDS011;1474;51.460;7.150;2023-04-20T13:35:59;4.63;;;2.55;;
2928;SDS011;1474;51.460;7.150;2023-04-20T13:38:25;5.63;;;3.47;;
2928;SDS011;1474;51.460;7.150;2023-04-20T13:40:50;4.05;;;3.03;;
2928;SDS011;1474;51.460;7.150;2023-04-20T13:43:16;5.68;;;4.50;;
2928;SDS011;1474;51.460;7.150;2023-04-20T13:45:42;5.22;;;3.83;;
2928;SDS011;1474;51.460;7.150;2023-04-20T13:48:07;4.15;;;3.35;;
2928;SDS011;1474;51.460;7.150;2023-04-20T13:50:33;4.25;;;3.65;;
2928;SDS011;1474;51.460;7.150;2023-04-20T13:52:58;4.32;;;2.78;;
2928;SDS011;1474;51.460;7.150;2023-04-20T13:55:26;4.18;;;3.08;;
2928;SDS011;1474;51.460;7.150;2023-04-20T13:57:52;3.05;;;2.40;;
2928;SDS011;1474;51.460;7.150;2023-04-20T14:00:18;2.92;;;2.67;;
2928;SDS011;1474;51.460;7.150;2023-04-20T14:02:45;4.55;;;3.40;;
2928;SDS011;1474;51.460;7.150;2023-04-20T14:05:10;6.05;;;3.85;;
2928;SDS011;1474;51.460;7.150;2023-04-20T14:07:37;3.70;;;3.20;;
2928;SDS011;1474;51.460;7.150;2023-04-20T14:10:03;6.07;;;4.00;;
2928;SDS011;1474;51.460;7.150;2023-04-20T14:12:30;4.53;;;3.10;;
2928;SDS011;1474;51.460;7.150;2023-04-20T14:14:57;3.50;;;2.83;;
2928;SDS011;1474;51.460;7.150;2023-04-20T14:17:24;7.28;;;3.90;;
2928;SDS011;1474;51.460;7.150;2023-04-20T14:19:50;5.38;;;3.30;;
2928;SDS011;1474;51.460;7.150;2023-04-20T14:22:16;6.28;;;3.83;;
2928;SDS011;1474;51.460;7.150;2023-04-20T14:24:41;5.45;;;4.25;;
2928;SDS011;1474;51.460;7.150;2023-04-20T14:27:09;5.70;;;3.63;;
2928;SDS011;1474;51.460;7.150;2023-04-20T14:29:35;5.18;;;3.97;;
2928;SDS011;1474;51.460;7.150;2023-04-20T14:32:01;3.63;;;2.83;;
2928;SDS011;1474;51.460;7.150;2023-04-20T14:34:26;6.88;;;4.25;;
2928;SDS011;1474;51.460;7.150;2023-04-20T14:36:52;6.20;;;4.93;;
2928;SDS011;1474;51.460;7.150;2023-04-20T14:39:18;5.40;;;4.28;;
2928;SDS011;1474;51.460;7.150;2023-04-20T14:41:47;5.63;;;4.25;;
2928;SDS011;1474;51.460;7.150;2023-04-20T14:44:13;7.05;;;5.10;;
2928;SDS011;1474;51.460;7.150;2023-04-20T14:46:39;5.82;;;4.18;;
2928;SDS011;1474;51.460;7.150;2023-04-20T14:49:05;2.63;;;2.42;;
2928;SDS011;1474;51.460;7.150;2023-04-20T14:51:31;6.32;;;4.20;;
2928;SDS011;1474;51.460;7.150;2023-04-20T14:53:57;7.43;;;4.00;;
2928;SDS011;1474;51.460;7.150;2023-04-20T14:56:22;3.67;;;2.72;;
2928;SDS011;1474;51.460;7.150;2023-04-20T14:58:48;6.53;;;4.20;;
2928;SDS011;1474;51.460;7.150;2023-04-20T15:01:14;5.93;;;4.80;;
2928;SDS011;1474;51.460;7.150;2023-04-20T15:03:41;5.35;;;4.53;;
2928;SDS011;1474;51.460;7.150;2023-04-20T15:06:06;9.05;;;4.88;;
2928;SDS011;1474;51.460;7.150;2023-04-20T15:08:32;8.07;;;4.80;;
2928;SDS011;1474;51.460;7.150;2023-04-20T15:10:58;4.93;;;4.00;;
2928;SDS011;1474;51.460;7.150;2023-04-20T15:13:23;6.45;;;3.97;;
2928;SDS011;1474;51.460;7.150;2023-04-20T15:15:50;7.00;;;4.05;;
2928;SDS011;1474;51.460;7.150;2023-04-20T15:18:16;5.88;;;3.85;;